PWSweather.com
Personal Weather Stations
Station Observations
ROSEGARDEN
Rose Garden, Brentwood, CA 94513

Rose GardenBrentwood, CA 94513

Lat: 37.967503, Lon: -121.721004

Elevation: 85

Station Type: La Crosse 2813

High Low Average
Temperature 78.1°F25.6°C 46.4°F8.0°C 59.3°F15.2°C
Dew Point 52.0°F11.1°C 39.0°F3.9°C 45.2°F7.3°C
Winds 7.4 mph 11.9 kmh Calm Calm 2.0 mph SSW3.2 kmh SSW
Wind Gusts 11.6 mph18.7 kmh -- 4.0 mph6.4 kmh
Humidity 80% 39% 61%
Pressure 30.17 in1021.7 mb 29.99 in1015.6 mb -
Precipitation 0.00 in0.0 mm - -
Hour Temp Dew Point Humidity Winds Wind Gusts Pressure Precip Precip Rate Daily Precip Total
12:02 AM 54.0°F12.2°C 42.5°F5.8°C 65% 1.0 mph SW1.6 kmh SW 1.3 mph2.1 kmh 30.17 in1021.7 mb 0.00 in0.0 mm 0.00 in/hr0.0 mm/hr 0.00 in0.0 mm
12:07 AM 53.8°F12.1°C 41.9°F5.5°C 64% 0.6 mph SW1.0 kmh SW 1.3 mph2.1 kmh 30.17 in1021.7 mb 0.00 in0.0 mm 0.00 in/hr0.0 mm/hr 0.00 in0.0 mm
12:12 AM 53.6°F12.0°C 42.1°F5.6°C 65% 0.7 mph WSW1.1 kmh WSW 1.3 mph2.1 kmh 30.17 in1021.7 mb 0.00 in0.0 mm 0.00 in/hr0.0 mm/hr 0.00 in0.0 mm
12:17 AM 53.6°F12.0°C 42.1°F5.6°C 65% 1.4 mph WSW2.3 kmh WSW 1.8 mph2.9 kmh 30.17 in1021.7 mb 0.00 in0.0 mm 0.00 in/hr0.0 mm/hr 0.00 in0.0 mm
12:22 AM 53.6°F12.0°C 42.1°F5.6°C 65% 1.0 mph WSW1.6 kmh WSW 1.8 mph2.9 kmh 30.17 in1021.7 mb 0.00 in0.0 mm 0.00 in/hr0.0 mm/hr 0.00 in0.0 mm
12:27 AM 53.5°F11.9°C 41.9°F5.5°C 65% 0.5 mph W0.8 kmh W 1.8 mph2.9 kmh 30.17 in1021.7 mb 0.00 in0.0 mm 0.00 in/hr0.0 mm/hr 0.00 in0.0 mm
12:32 AM 53.5°F11.9°C 41.9°F5.5°C 65% 0.5 mph W0.8 kmh W 1.3 mph2.1 kmh 30.16 in1021.3 mb 0.00 in0.0 mm 0.00 in/hr0.0 mm/hr 0.00 in0.0 mm
12:36 AM 53.3°F11.8°C 41.8°F5.4°C 65% 0.9 mph WSW1.4 kmh WSW 1.1 mph1.8 kmh 30.16 in1021.3 mb 0.00 in0.0 mm 0.00 in/hr0.0 mm/hr 0.00 in0.0 mm
12:41 AM 53.3°F11.8°C 41.8°F5.4°C 65% 1.3 mph WSW2.1 kmh WSW 1.8 mph2.9 kmh 30.16 in1021.3 mb 0.00 in0.0 mm 0.00 in/hr0.0 mm/hr 0.00 in0.0 mm
12:46 AM 53.1°F11.7°C 42.0°F5.6°C 66% 1.6 mph WSW2.6 kmh WSW 1.8 mph2.9 kmh 30.16 in1021.3 mb 0.00 in0.0 mm 0.00 in/hr0.0 mm/hr 0.00 in0.0 mm
12:51 AM 52.9°F11.6°C 41.9°F5.5°C 66% 0.9 mph W1.4 kmh W 1.8 mph2.9 kmh 30.16 in1021.3 mb 0.00 in0.0 mm 0.00 in/hr0.0 mm/hr 0.00 in0.0 mm
12:56 AM 52.9°F11.6°C 41.9°F5.5°C 66% 0.4 mph WNW0.6 kmh WNW 1.8 mph2.9 kmh 30.16 in1021.3 mb 0.00 in0.0 mm 0.00 in/hr0.0 mm/hr 0.00 in0.0 mm
01:01 AM 52.9°F11.6°C 42.2°F5.7°C 67% 0.8 mph W1.3 kmh W 1.1 mph1.8 kmh 30.16 in1021.3 mb 0.00 in0.0 mm 0.00 in/hr0.0 mm/hr 0.00 in0.0 mm
01:06 AM 52.9°F11.6°C 41.9°F5.5°C 66% 0.4 mph WNW0.6 kmh WNW 1.1 mph1.8 kmh 30.16 in1021.3 mb 0.00 in0.0 mm 0.00 in/hr0.0 mm/hr 0.00 in0.0 mm
01:11 AM 52.9°F11.6°C 42.2°F5.7°C 67% 0.4 mph WNW0.6 kmh WNW 0.9 mph1.4 kmh 30.16 in1021.3 mb 0.00 in0.0 mm 0.00 in/hr0.0 mm/hr 0.00 in0.0 mm
01:16 AM 52.7°F11.5°C 42.1°F5.6°C 67% 0.3 mph NW0.5 kmh NW 0.7 mph1.1 kmh 30.16 in1021.3 mb 0.00 in0.0 mm 0.00 in/hr0.0 mm/hr 0.00 in0.0 mm
01:21 AM 52.6°F11.4°C 42.0°F5.6°C 67% 0.8 mph WNW1.3 kmh WNW 1.1 mph1.8 kmh 30.16 in1021.3 mb 0.00 in0.0 mm 0.00 in/hr0.0 mm/hr 0.00 in0.0 mm
01:26 AM 52.6°F11.4°C 42.3°F5.7°C 68% 0.7 mph WNW1.1 kmh WNW 1.3 mph2.1 kmh 30.16 in1021.3 mb 0.00 in0.0 mm 0.00 in/hr0.0 mm/hr 0.00 in0.0 mm
01:31 AM 52.4°F11.3°C 42.1°F5.6°C 68% 1.5 mph W2.4 kmh W 1.8 mph2.9 kmh 30.16 in1021.3 mb 0.00 in0.0 mm 0.00 in/hr0.0 mm/hr 0.00 in0.0 mm
01:36 AM 52.2°F11.2°C 42.4°F5.8°C 69% 1.6 mph W2.6 kmh W 1.8 mph2.9 kmh 30.16 in1021.3 mb 0.00 in0.0 mm 0.00 in/hr0.0 mm/hr 0.00 in0.0 mm
01:41 AM 52.2°F11.2°C 42.4°F5.8°C 69% 0.8 mph WNW1.3 kmh WNW 1.8 mph2.9 kmh 30.16 in1021.3 mb 0.00 in0.0 mm 0.00 in/hr0.0 mm/hr 0.00 in0.0 mm
01:46 AM 52.0°F11.1°C 42.2°F5.7°C 69% 0.3 mph WNW0.5 kmh WNW 1.8 mph2.9 kmh 30.16 in1021.3 mb 0.00 in0.0 mm 0.00 in/hr0.0 mm/hr 0.00 in0.0 mm
01:51 AM 51.8°F11.0°C 41.7°F5.4°C 68% 0.2 mph WNW0.3 kmh WNW 1.6 mph2.6 kmh 30.16 in1021.3 mb 0.00 in0.0 mm 0.00 in/hr0.0 mm/hr 0.00 in0.0 mm
01:56 AM 51.5°F10.8°C 41.3°F5.2°C 68% 0.3 mph W0.5 kmh W 0.9 mph1.4 kmh 30.16 in1021.3 mb 0.00 in0.0 mm 0.00 in/hr0.0 mm/hr 0.00 in0.0 mm
02:01 AM 51.3°F10.7°C 41.1°F5.1°C 68% 0.3 mph WSW0.5 kmh WSW 0.9 mph1.4 kmh 30.16 in1021.3 mb 0.00 in0.0 mm 0.00 in/hr0.0 mm/hr 0.00 in0.0 mm
02:06 AM 50.9°F10.5°C 41.2°F5.1°C 69% Calm Calm 0.4 mph0.6 kmh 30.15 in1021.0 mb 0.00 in0.0 mm 0.00 in/hr0.0 mm/hr 0.00 in0.0 mm
02:11 AM 50.8°F10.4°C 41.1°F5.1°C 69% 0.4 mph WSW0.6 kmh WSW 0.7 mph1.1 kmh 30.15 in1021.0 mb 0.00 in0.0 mm 0.00 in/hr0.0 mm/hr 0.00 in0.0 mm
02:16 AM 50.4°F10.2°C 40.7°F4.8°C 69% 0.3 mph WSW0.5 kmh WSW 0.7 mph1.1 kmh 30.15 in1021.0 mb 0.00 in0.0 mm 0.00 in/hr0.0 mm/hr 0.00 in0.0 mm
02:21 AM 50.4°F10.2°C 41.8°F5.4°C 72% 0.8 mph SSW1.3 kmh SSW 1.1 mph1.8 kmh 30.15 in1021.0 mb 0.00 in0.0 mm 0.00 in/hr0.0 mm/hr 0.00 in0.0 mm
02:26 AM 50.0°F10.0°C 41.1°F5.1°C 71% 0.7 mph S1.1 kmh S 1.1 mph1.8 kmh 30.15 in1021.0 mb 0.00 in0.0 mm 0.00 in/hr0.0 mm/hr 0.00 in0.0 mm
02:31 AM 50.0°F10.0°C 40.7°F4.8°C 70% 0.5 mph SSE0.8 kmh SSE 1.1 mph1.8 kmh 30.14 in1020.7 mb 0.00 in0.0 mm 0.00 in/hr0.0 mm/hr 0.00 in0.0 mm
02:36 AM 49.7°F9.8°C 40.7°F4.8°C 71% 1.3 mph SSE2.1 kmh SSE 2.0 mph3.2 kmh 30.15 in1021.0 mb 0.00 in0.0 mm 0.00 in/hr0.0 mm/hr 0.00 in0.0 mm
02:41 AM 49.3°F9.6°C 40.3°F4.6°C 71% 0.7 mph S1.1 kmh S 2.0 mph3.2 kmh 30.14 in1020.7 mb 0.00 in0.0 mm 0.00 in/hr0.0 mm/hr 0.00 in0.0 mm
02:46 AM 49.3°F9.6°C 40.3°F4.6°C 71% 0.6 mph S1.0 kmh S 2.0 mph3.2 kmh 30.14 in1020.7 mb 0.00 in0.0 mm 0.00 in/hr0.0 mm/hr 0.00 in0.0 mm
02:51 AM 49.1°F9.5°C 40.2°F4.6°C 71% 0.3 mph S0.5 kmh S 1.3 mph2.1 kmh 30.14 in1020.7 mb 0.00 in0.0 mm 0.00 in/hr0.0 mm/hr 0.00 in0.0 mm
02:56 AM 49.0°F9.4°C 40.0°F4.4°C 71% 0.2 mph SSE0.3 kmh SSE 0.4 mph0.6 kmh 30.14 in1020.7 mb 0.00 in0.0 mm 0.00 in/hr0.0 mm/hr 0.00 in0.0 mm
03:01 AM 48.8°F9.3°C 40.2°F4.6°C 72% 0.2 mph SSE0.3 kmh SSE 0.4 mph0.6 kmh 30.14 in1020.7 mb 0.00 in0.0 mm 0.00 in/hr0.0 mm/hr 0.00 in0.0 mm
03:06 AM 48.6°F9.2°C 40.0°F4.4°C 72% Calm Calm 0.4 mph0.6 kmh 30.14 in1020.7 mb 0.00 in0.0 mm 0.00 in/hr0.0 mm/hr 0.00 in0.0 mm
03:11 AM 48.2°F9.0°C 39.6°F4.2°C 72% Calm Calm -- 30.14 in1020.7 mb 0.00 in0.0 mm 0.00 in/hr0.0 mm/hr 0.00 in0.0 mm
03:16 AM 48.2°F9.0°C 39.9°F4.4°C 73% Calm Calm -- 30.13 in1020.3 mb 0.00 in0.0 mm 0.00 in/hr0.0 mm/hr 0.00 in0.0 mm
03:21 AM 48.2°F9.0°C 39.9°F4.4°C 73% Calm Calm -- 30.13 in1020.3 mb 0.00 in0.0 mm 0.00 in/hr0.0 mm/hr 0.00 in0.0 mm
03:26 AM 48.4°F9.1°C 40.1°F4.5°C 73% 0.2 mph SSE0.3 kmh SSE 0.2 mph0.3 kmh 30.13 in1020.3 mb 0.00 in0.0 mm 0.00 in/hr0.0 mm/hr 0.00 in0.0 mm
03:31 AM 48.2°F9.0°C 39.9°F4.4°C 73% Calm Calm 0.2 mph0.3 kmh 30.13 in1020.3 mb 0.00 in0.0 mm 0.00 in/hr0.0 mm/hr 0.00 in0.0 mm
03:36 AM 48.2°F9.0°C 39.9°F4.4°C 73% Calm Calm -- 30.13 in1020.3 mb 0.00 in0.0 mm 0.00 in/hr0.0 mm/hr 0.00 in0.0 mm
03:41 AM 48.2°F9.0°C 39.9°F4.4°C 73% Calm Calm -- 30.13 in1020.3 mb 0.00 in0.0 mm 0.00 in/hr0.0 mm/hr 0.00 in0.0 mm
03:47 AM 48.2°F9.0°C 40.2°F4.6°C 74% 0.3 mph SSW0.5 kmh SSW 0.4 mph0.6 kmh 30.13 in1020.3 mb 0.00 in0.0 mm 0.00 in/hr0.0 mm/hr 0.00 in0.0 mm
03:52 AM 48.1°F8.9°C 40.1°F4.5°C 74% 0.3 mph S0.5 kmh S 0.4 mph0.6 kmh 30.13 in1020.3 mb 0.00 in0.0 mm 0.00 in/hr0.0 mm/hr 0.00 in0.0 mm
03:57 AM 47.9°F8.8°C 40.0°F4.4°C 74% Calm Calm 0.4 mph0.6 kmh 30.13 in1020.3 mb 0.00 in0.0 mm 0.00 in/hr0.0 mm/hr 0.00 in0.0 mm
04:02 AM 47.9°F8.8°C 40.2°F4.6°C 75% Calm Calm 0.4 mph0.6 kmh 30.13 in1020.3 mb 0.00 in0.0 mm 0.00 in/hr0.0 mm/hr 0.00 in0.0 mm
04:07 AM 47.9°F8.8°C 40.2°F4.6°C 75% 0.2 mph SSW0.3 kmh SSW 0.4 mph0.6 kmh 30.13 in1020.3 mb 0.00 in0.0 mm 0.00 in/hr0.0 mm/hr 0.00 in0.0 mm
04:12 AM 47.9°F8.8°C 40.2°F4.6°C 75% 0.3 mph SSW0.5 kmh SSW 0.4 mph0.6 kmh 30.13 in1020.3 mb 0.00 in0.0 mm 0.00 in/hr0.0 mm/hr 0.00 in0.0 mm
04:17 AM 47.7°F8.7°C 40.2°F4.6°C 75% 0.5 mph SW0.8 kmh SW 0.7 mph1.1 kmh 30.13 in1020.3 mb 0.00 in0.0 mm 0.00 in/hr0.0 mm/hr 0.00 in0.0 mm
04:22 AM 47.5°F8.6°C 40.0°F4.4°C 75% 0.7 mph SW1.1 kmh SW 1.1 mph1.8 kmh 30.13 in1020.3 mb 0.00 in0.0 mm 0.00 in/hr0.0 mm/hr 0.00 in0.0 mm
04:27 AM 47.2°F8.4°C 39.2°F4.0°C 74% 0.4 mph SW0.6 kmh SW 1.1 mph1.8 kmh 30.13 in1020.3 mb 0.00 in0.0 mm 0.00 in/hr0.0 mm/hr 0.00 in0.0 mm
04:32 AM 47.0°F8.3°C 39.4°F4.1°C 75% 0.7 mph SW1.1 kmh SW 1.1 mph1.8 kmh 30.13 in1020.3 mb 0.00 in0.0 mm 0.00 in/hr0.0 mm/hr 0.00 in0.0 mm
04:37 AM 46.6°F8.1°C 39.2°F4.0°C 75% Calm Calm 0.9 mph1.4 kmh 30.13 in1020.3 mb 0.00 in0.0 mm 0.00 in/hr0.0 mm/hr 0.00 in0.0 mm
04:42 AM 46.6°F8.1°C 39.5°F4.2°C 76% 0.4 mph SW0.6 kmh SW 0.4 mph0.6 kmh 30.13 in1020.3 mb 0.00 in0.0 mm 0.00 in/hr0.0 mm/hr 0.00 in0.0 mm
04:47 AM 46.4°F8.0°C 39.0°F3.9°C 75% 0.9 mph SW1.4 kmh SW 1.1 mph1.8 kmh 30.13 in1020.3 mb 0.00 in0.0 mm 0.00 in/hr0.0 mm/hr 0.00 in0.0 mm
04:52 AM 46.4°F8.0°C 39.3°F4.1°C 76% 0.8 mph W1.3 kmh W 1.1 mph1.8 kmh 30.13 in1020.3 mb 0.00 in0.0 mm 0.00 in/hr0.0 mm/hr 0.00 in0.0 mm
04:57 AM 46.4°F8.0°C 39.3°F4.1°C 76% Calm Calm 1.1 mph1.8 kmh 30.13 in1020.3 mb 0.00 in0.0 mm 0.00 in/hr0.0 mm/hr 0.00 in0.0 mm
05:02 AM 46.4°F8.0°C 39.7°F4.3°C 77% 0.9 mph WNW1.4 kmh WNW 1.1 mph1.8 kmh 30.13 in1020.3 mb 0.00 in0.0 mm 0.00 in/hr0.0 mm/hr 0.00 in0.0 mm
05:07 AM 46.4°F8.0°C 39.7°F4.3°C 77% 0.2 mph WNW0.3 kmh WNW 1.1 mph1.8 kmh 30.14 in1020.7 mb 0.00 in0.0 mm 0.00 in/hr0.0 mm/hr 0.00 in0.0 mm
05:12 AM 46.4°F8.0°C 39.7°F4.3°C 77% 0.2 mph NW0.3 kmh NW 1.1 mph1.8 kmh 30.14 in1020.7 mb 0.00 in0.0 mm 0.00 in/hr0.0 mm/hr 0.00 in0.0 mm
05:17 AM 46.4°F8.0°C 39.7°F4.3°C 77% Calm Calm 0.7 mph1.1 kmh 30.14 in1020.7 mb 0.00 in0.0 mm 0.00 in/hr0.0 mm/hr 0.00 in0.0 mm
05:22 AM 46.4°F8.0°C 39.7°F4.3°C 77% 0.5 mph W0.8 kmh W 1.1 mph1.8 kmh 30.14 in1020.7 mb 0.00 in0.0 mm 0.00 in/hr0.0 mm/hr 0.00 in0.0 mm
05:27 AM 46.4°F8.0°C 39.7°F4.3°C 77% 0.2 mph W0.3 kmh W 1.1 mph1.8 kmh 30.14 in1020.7 mb 0.00 in0.0 mm 0.00 in/hr0.0 mm/hr 0.00 in0.0 mm
05:32 AM 46.6°F8.1°C 40.1°F4.5°C 78% 0.8 mph W1.3 kmh W 1.1 mph1.8 kmh 30.14 in1020.7 mb 0.00 in0.0 mm 0.00 in/hr0.0 mm/hr 0.00 in0.0 mm
05:36 AM 46.6°F8.1°C 39.8°F4.3°C 77% 0.5 mph WSW0.8 kmh WSW 1.1 mph1.8 kmh 30.14 in1020.7 mb 0.00 in0.0 mm 0.00 in/hr0.0 mm/hr 0.00 in0.0 mm
05:41 AM 46.8°F8.2°C 40.0°F4.4°C 77% 0.6 mph WSW1.0 kmh WSW 1.1 mph1.8 kmh 30.14 in1020.7 mb 0.00 in0.0 mm 0.00 in/hr0.0 mm/hr 0.00 in0.0 mm
05:46 AM 46.8°F8.2°C 40.0°F4.4°C 77% 0.4 mph WSW0.6 kmh WSW 0.9 mph1.4 kmh 30.14 in1020.7 mb 0.00 in0.0 mm 0.00 in/hr0.0 mm/hr 0.00 in0.0 mm
05:51 AM 46.8°F8.2°C 40.0°F4.4°C 77% 0.6 mph WSW1.0 kmh WSW 0.9 mph1.4 kmh 30.14 in1020.7 mb 0.00 in0.0 mm 0.00 in/hr0.0 mm/hr 0.00 in0.0 mm
05:56 AM 46.8°F8.2°C 40.3°F4.6°C 78% 0.4 mph WSW0.6 kmh WSW 0.9 mph1.4 kmh 30.14 in1020.7 mb 0.00 in0.0 mm 0.00 in/hr0.0 mm/hr 0.00 in0.0 mm
06:01 AM 47.0°F8.3°C 40.5°F4.7°C 78% 0.4 mph SW0.6 kmh SW 0.7 mph1.1 kmh 30.14 in1020.7 mb 0.00 in0.0 mm 0.00 in/hr0.0 mm/hr 0.00 in0.0 mm
06:06 AM 47.2°F8.4°C 40.7°F4.8°C 78% 0.6 mph WSW1.0 kmh WSW 0.9 mph1.4 kmh 30.14 in1020.7 mb 0.00 in0.0 mm 0.00 in/hr0.0 mm/hr 0.00 in0.0 mm
06:11 AM 47.3°F8.5°C 40.8°F4.9°C 78% 0.4 mph SW0.6 kmh SW 0.9 mph1.4 kmh 30.14 in1020.7 mb 0.00 in0.0 mm 0.00 in/hr0.0 mm/hr 0.00 in0.0 mm
06:16 AM 47.5°F8.6°C 41.7°F5.4°C 80% 0.8 mph SSW1.3 kmh SSW 1.1 mph1.8 kmh 30.13 in1020.3 mb 0.00 in0.0 mm 0.00 in/hr0.0 mm/hr 0.00 in0.0 mm
06:21 AM 47.7°F8.7°C 41.9°F5.5°C 80% 1.1 mph S1.8 kmh S 1.3 mph2.1 kmh 30.13 in1020.3 mb 0.00 in0.0 mm 0.00 in/hr0.0 mm/hr 0.00 in0.0 mm
06:26 AM 47.9°F8.8°C 41.7°F5.4°C 79% 1.1 mph SSW1.8 kmh SSW 1.6 mph2.6 kmh 30.13 in1020.3 mb 0.00 in0.0 mm 0.00 in/hr0.0 mm/hr 0.00 in0.0 mm
06:31 AM 48.1°F8.9°C 41.8°F5.4°C 79% 0.8 mph SW1.3 kmh SW 1.6 mph2.6 kmh 30.14 in1020.7 mb 0.00 in0.0 mm 0.00 in/hr0.0 mm/hr 0.00 in0.0 mm
06:36 AM 48.1°F8.9°C 41.8°F5.4°C 79% 0.6 mph SW1.0 kmh SW 1.3 mph2.1 kmh 30.13 in1020.3 mb 0.00 in0.0 mm 0.00 in/hr0.0 mm/hr 0.00 in0.0 mm
06:41 AM 48.2°F9.0°C 41.9°F5.5°C 79% 0.4 mph SW0.6 kmh SW 1.3 mph2.1 kmh 30.14 in1020.7 mb 0.00 in0.0 mm 0.00 in/hr0.0 mm/hr 0.00 in0.0 mm
06:46 AM 48.6°F9.2°C 41.9°F5.5°C 78% 0.6 mph SW1.0 kmh SW 1.1 mph1.8 kmh 30.14 in1020.7 mb 0.00 in0.0 mm 0.00 in/hr0.0 mm/hr 0.00 in0.0 mm
06:51 AM 48.8°F9.3°C 42.5°F5.8°C 79% 0.5 mph S0.8 kmh S 1.1 mph1.8 kmh 30.13 in1020.3 mb 0.00 in0.0 mm 0.00 in/hr0.0 mm/hr 0.00 in0.0 mm
06:56 AM 49.1°F9.5°C 42.5°F5.8°C 78% 0.5 mph S0.8 kmh S 1.3 mph2.1 kmh 30.14 in1020.7 mb 0.00 in0.0 mm 0.00 in/hr0.0 mm/hr 0.00 in0.0 mm
07:01 AM 49.3°F9.6°C 42.7°F5.9°C 78% 0.7 mph SSE1.1 kmh SSE 1.3 mph2.1 kmh 30.13 in1020.3 mb 0.00 in0.0 mm 0.00 in/hr0.0 mm/hr 0.00 in0.0 mm
07:06 AM 49.7°F9.8°C 43.0°F6.1°C 78% 0.2 mph SSE0.3 kmh SSE 0.9 mph1.4 kmh 30.14 in1020.7 mb 0.00 in0.0 mm 0.00 in/hr0.0 mm/hr 0.00 in0.0 mm
07:11 AM 50.0°F10.0°C 43.4°F6.3°C 78% 0.7 mph SE1.1 kmh SE 1.1 mph1.8 kmh 30.14 in1020.7 mb 0.00 in0.0 mm 0.00 in/hr0.0 mm/hr 0.00 in0.0 mm
07:16 AM 50.4°F10.2°C 43.7°F6.5°C 78% 0.8 mph SE1.3 kmh SE 1.8 mph2.9 kmh 30.14 in1020.7 mb 0.00 in0.0 mm 0.00 in/hr0.0 mm/hr 0.00 in0.0 mm
07:21 AM 50.8°F10.4°C 44.1°F6.7°C 78% 1.0 mph SSE1.6 kmh SSE 1.8 mph2.9 kmh 30.13 in1020.3 mb 0.00 in0.0 mm 0.00 in/hr0.0 mm/hr 0.00 in0.0 mm
07:26 AM 51.1°F10.6°C 44.5°F6.9°C 78% 0.4 mph SSE0.6 kmh SSE 1.6 mph2.6 kmh 30.14 in1020.7 mb 0.00 in0.0 mm 0.00 in/hr0.0 mm/hr 0.00 in0.0 mm
07:31 AM 51.5°F10.8°C 44.8°F7.1°C 78% 0.8 mph SSE1.3 kmh SSE 1.6 mph2.6 kmh 30.14 in1020.7 mb 0.00 in0.0 mm 0.00 in/hr0.0 mm/hr 0.00 in0.0 mm
07:36 AM 52.0°F11.1°C 45.1°F7.3°C 77% 1.1 mph SE1.8 kmh SE 1.8 mph2.9 kmh 30.13 in1020.3 mb 0.00 in0.0 mm 0.00 in/hr0.0 mm/hr 0.00 in0.0 mm
07:41 AM 52.4°F11.3°C 45.1°F7.3°C 76% 0.9 mph SE1.4 kmh SE 2.2 mph3.5 kmh 30.13 in1020.3 mb 0.00 in0.0 mm 0.00 in/hr0.0 mm/hr 0.00 in0.0 mm
07:46 AM 53.1°F11.7°C 45.7°F7.6°C 76% 0.8 mph SE1.3 kmh SE 2.2 mph3.5 kmh 30.13 in1020.3 mb 0.00 in0.0 mm 0.00 in/hr0.0 mm/hr 0.00 in0.0 mm
07:51 AM 53.6°F12.0°C 45.9°F7.7°C 75% 1.1 mph SE1.8 kmh SE 1.8 mph2.9 kmh 30.13 in1020.3 mb 0.00 in0.0 mm 0.00 in/hr0.0 mm/hr 0.00 in0.0 mm
07:56 AM 54.4°F12.4°C 46.6°F8.1°C 75% 1.0 mph SE1.6 kmh SE 1.8 mph2.9 kmh 30.13 in1020.3 mb 0.00 in0.0 mm 0.00 in/hr0.0 mm/hr 0.00 in0.0 mm
08:01 AM 55.1°F12.8°C 46.9°F8.3°C 74% 0.5 mph ESE0.8 kmh ESE 1.8 mph2.9 kmh 30.13 in1020.3 mb 0.00 in0.0 mm 0.00 in/hr0.0 mm/hr 0.00 in0.0 mm
08:06 AM 56.2°F13.4°C 47.3°F8.5°C 72% 1.1 mph SE1.8 kmh SE 2.5 mph4.0 kmh 30.13 in1020.3 mb 0.00 in0.0 mm 0.00 in/hr0.0 mm/hr 0.00 in0.0 mm
08:11 AM 56.9°F13.8°C 47.5°F8.6°C 71% 1.6 mph SE2.6 kmh SE 2.5 mph4.0 kmh 30.13 in1020.3 mb 0.00 in0.0 mm 0.00 in/hr0.0 mm/hr 0.00 in0.0 mm
08:16 AM 57.6°F14.2°C 47.5°F8.6°C 69% 1.1 mph E1.8 kmh E 2.5 mph4.0 kmh 30.13 in1020.3 mb 0.00 in0.0 mm 0.00 in/hr0.0 mm/hr 0.00 in0.0 mm
08:21 AM 58.1°F14.5°C 47.6°F8.7°C 68% 1.5 mph SSE2.4 kmh SSE 3.1 mph5.0 kmh 30.13 in1020.3 mb 0.00 in0.0 mm 0.00 in/hr0.0 mm/hr 0.00 in0.0 mm
08:26 AM 58.7°F14.8°C 47.7°F8.7°C 67% 1.9 mph SE3.1 kmh SE 3.1 mph5.0 kmh 30.13 in1020.3 mb 0.00 in0.0 mm 0.00 in/hr0.0 mm/hr 0.00 in0.0 mm
08:31 AM 59.4°F15.2°C 48.1°F8.9°C 66% 0.8 mph SSE1.3 kmh SSE 2.9 mph4.7 kmh 30.13 in1020.3 mb 0.00 in0.0 mm 0.00 in/hr0.0 mm/hr 0.00 in0.0 mm
08:36 AM 59.9°F15.5°C 47.7°F8.7°C 64% 1.2 mph SE1.9 kmh SE 3.6 mph5.8 kmh 30.13 in1020.3 mb 0.00 in0.0 mm 0.00 in/hr0.0 mm/hr 0.00 in0.0 mm
08:41 AM 60.3°F15.7°C 48.5°F9.2°C 65% 1.7 mph ESE2.7 kmh ESE 3.6 mph5.8 kmh 30.13 in1020.3 mb 0.00 in0.0 mm 0.00 in/hr0.0 mm/hr 0.00 in0.0 mm
08:46 AM 60.8°F16.0°C 48.3°F9.1°C 63% 1.9 mph E3.1 kmh E 2.9 mph4.7 kmh 30.13 in1020.3 mb 0.00 in0.0 mm 0.00 in/hr0.0 mm/hr 0.00 in0.0 mm
08:52 AM 61.0°F16.1°C 48.0°F8.9°C 62% 3.6 mph SSE5.8 kmh SSE 5.1 mph8.2 kmh 30.13 in1020.3 mb 0.00 in0.0 mm 0.00 in/hr0.0 mm/hr 0.00 in0.0 mm
08:57 AM 60.8°F16.0°C 47.8°F8.8°C 62% 1.4 mph E2.3 kmh E 5.1 mph8.2 kmh 30.13 in1020.3 mb 0.00 in0.0 mm 0.00 in/hr0.0 mm/hr 0.00 in0.0 mm
09:02 AM 61.0°F16.1°C 47.5°F8.6°C 61% 2.2 mph SE3.5 kmh SE 4.0 mph6.4 kmh 30.13 in1020.3 mb 0.00 in0.0 mm 0.00 in/hr0.0 mm/hr 0.00 in0.0 mm
09:07 AM 61.6°F16.4°C 47.6°F8.7°C 60% 4.0 mph SE6.4 kmh SE 5.4 mph8.7 kmh 30.13 in1020.3 mb 0.00 in0.0 mm 0.00 in/hr0.0 mm/hr 0.00 in0.0 mm
09:12 AM 62.3°F16.8°C 48.2°F9.0°C 60% 1.7 mph ESE2.7 kmh ESE 5.4 mph8.7 kmh 30.13 in1020.3 mb 0.00 in0.0 mm 0.00 in/hr0.0 mm/hr 0.00 in0.0 mm
09:17 AM 62.8°F17.1°C 48.2°F9.0°C 59% 3.0 mph E4.8 kmh E 4.5 mph7.2 kmh 30.13 in1020.3 mb 0.00 in0.0 mm 0.00 in/hr0.0 mm/hr 0.00 in0.0 mm
09:22 AM 63.0°F17.2°C 48.0°F8.9°C 58% 2.7 mph E4.3 kmh E 5.6 mph9.0 kmh 30.13 in1020.3 mb 0.00 in0.0 mm 0.00 in/hr0.0 mm/hr 0.00 in0.0 mm
09:27 AM 63.2°F17.3°C 48.2°F9.0°C 58% 3.3 mph SE5.3 kmh SE 5.6 mph9.0 kmh 30.13 in1020.3 mb 0.00 in0.0 mm 0.00 in/hr0.0 mm/hr 0.00 in0.0 mm
09:32 AM 63.4°F17.4°C 47.8°F8.8°C 57% 3.2 mph ESE5.1 kmh ESE 5.4 mph8.7 kmh 30.13 in1020.3 mb 0.00 in0.0 mm 0.00 in/hr0.0 mm/hr 0.00 in0.0 mm
09:36 AM 63.5°F17.5°C 48.0°F8.9°C 57% 3.8 mph SE6.1 kmh SE 5.4 mph8.7 kmh 30.12 in1020.0 mb 0.00 in0.0 mm 0.00 in/hr0.0 mm/hr 0.00 in0.0 mm
09:41 AM 63.5°F17.5°C 47.4°F8.6°C 56% 4.2 mph ESE6.8 kmh ESE 6.5 mph10.5 kmh 30.12 in1020.0 mb 0.00 in0.0 mm 0.00 in/hr0.0 mm/hr 0.00 in0.0 mm
09:46 AM 63.5°F17.5°C 47.0°F8.3°C 55% 3.1 mph SE5.0 kmh SE 6.5 mph10.5 kmh 30.12 in1020.0 mb 0.00 in0.0 mm 0.00 in/hr0.0 mm/hr 0.00 in0.0 mm
09:51 AM 63.9°F17.7°C 47.8°F8.8°C 56% 3.7 mph E6.0 kmh E 5.6 mph9.0 kmh 30.12 in1020.0 mb 0.00 in0.0 mm 0.00 in/hr0.0 mm/hr 0.00 in0.0 mm
09:56 AM 64.1°F17.8°C 47.4°F8.6°C 55% 3.9 mph E6.3 kmh E 6.3 mph10.1 kmh 30.12 in1020.0 mb 0.00 in0.0 mm 0.00 in/hr0.0 mm/hr 0.00 in0.0 mm
10:01 AM 64.3°F17.9°C 47.2°F8.4°C 54% 4.7 mph SE7.6 kmh SE 6.3 mph10.1 kmh 30.12 in1020.0 mb 0.00 in0.0 mm 0.00 in/hr0.0 mm/hr 0.00 in0.0 mm
10:06 AM 64.4°F18.0°C 47.4°F8.6°C 54% 4.2 mph SE6.8 kmh SE 7.4 mph11.9 kmh 30.11 in1019.6 mb 0.00 in0.0 mm 0.00 in/hr0.0 mm/hr 0.00 in0.0 mm
10:11 AM 64.6°F18.1°C 48.0°F8.9°C 55% 3.4 mph ESE5.5 kmh ESE 7.4 mph11.9 kmh 30.11 in1019.6 mb 0.00 in0.0 mm 0.00 in/hr0.0 mm/hr 0.00 in0.0 mm
10:16 AM 65.3°F18.5°C 48.3°F9.1°C 54% 3.2 mph SE5.1 kmh SE 6.7 mph10.8 kmh 30.11 in1019.6 mb 0.00 in0.0 mm 0.00 in/hr0.0 mm/hr 0.00 in0.0 mm
10:21 AM 65.5°F18.6°C 47.4°F8.6°C 52% 5.5 mph ESE8.9 kmh ESE 7.6 mph12.2 kmh 30.11 in1019.6 mb 0.00 in0.0 mm 0.00 in/hr0.0 mm/hr 0.00 in0.0 mm
10:26 AM 65.7°F18.7°C 47.6°F8.7°C 52% 4.8 mph SE7.7 kmh SE 7.6 mph12.2 kmh 30.10 in1019.3 mb 0.00 in0.0 mm 0.00 in/hr0.0 mm/hr 0.00 in0.0 mm
10:31 AM 65.7°F18.7°C 47.6°F8.7°C 52% 5.1 mph E8.2 kmh E 7.6 mph12.2 kmh 30.10 in1019.3 mb 0.00 in0.0 mm 0.00 in/hr0.0 mm/hr 0.00 in0.0 mm
10:36 AM 65.9°F18.8°C 47.8°F8.8°C 52% 4.7 mph SE7.6 kmh SE 7.6 mph12.2 kmh 30.10 in1019.3 mb 0.00 in0.0 mm 0.00 in/hr0.0 mm/hr 0.00 in0.0 mm
10:41 AM 66.1°F18.9°C 48.0°F8.9°C 52% 5.7 mph E9.2 kmh E 7.8 mph12.6 kmh 30.10 in1019.3 mb 0.00 in0.0 mm 0.00 in/hr0.0 mm/hr 0.00 in0.0 mm
10:46 AM 66.4°F19.1°C 47.4°F8.6°C 50% 4.5 mph SE7.2 kmh SE 7.8 mph12.6 kmh 30.10 in1019.3 mb 0.00 in0.0 mm 0.00 in/hr0.0 mm/hr 0.00 in0.0 mm
10:51 AM 66.8°F19.3°C 47.6°F8.7°C 50% 7.2 mph SE11.6 kmh SE 8.1 mph13.0 kmh 30.10 in1019.3 mb 0.00 in0.0 mm 0.00 in/hr0.0 mm/hr 0.00 in0.0 mm
10:56 AM 67.1°F19.5°C 47.3°F8.5°C 49% 4.9 mph SE7.9 kmh SE 8.1 mph13.0 kmh 30.10 in1019.3 mb 0.00 in0.0 mm 0.00 in/hr0.0 mm/hr 0.00 in0.0 mm
11:01 AM 67.5°F19.7°C 47.1°F8.4°C 48% 7.0 mph SE11.3 kmh SE 8.7 mph14.0 kmh 30.09 in1019.0 mb 0.00 in0.0 mm 0.00 in/hr0.0 mm/hr 0.00 in0.0 mm
11:06 AM 67.3°F19.6°C 47.0°F8.3°C 48% 7.1 mph SE11.4 kmh SE 8.9 mph14.3 kmh 30.09 in1019.0 mb 0.00 in0.0 mm 0.00 in/hr0.0 mm/hr 0.00 in0.0 mm
11:11 AM 67.3°F19.6°C 47.0°F8.3°C 48% 4.4 mph SE7.1 kmh SE 8.9 mph14.3 kmh 30.09 in1019.0 mb 0.00 in0.0 mm 0.00 in/hr0.0 mm/hr 0.00 in0.0 mm
11:16 AM 68.0°F20.0°C 47.0°F8.3°C 47% 6.1 mph ESE9.8 kmh ESE 8.5 mph13.7 kmh 30.09 in1019.0 mb 0.00 in0.0 mm 0.00 in/hr0.0 mm/hr 0.00 in0.0 mm
11:21 AM 68.4°F20.2°C 48.5°F9.2°C 49% 3.0 mph ESE4.8 kmh ESE 8.5 mph13.7 kmh 30.08 in1018.6 mb 0.00 in0.0 mm 0.00 in/hr0.0 mm/hr 0.00 in0.0 mm
11:26 AM 68.8°F20.4°C 48.2°F9.0°C 48% 2.0 mph ESE3.2 kmh ESE 9.2 mph14.8 kmh 30.08 in1018.6 mb 0.00 in0.0 mm 0.00 in/hr0.0 mm/hr 0.00 in0.0 mm
11:31 AM 69.1°F20.6°C 48.0°F8.9°C 47% 5.9 mph SE9.5 kmh SE 9.2 mph14.8 kmh 30.08 in1018.6 mb 0.00 in0.0 mm 0.00 in/hr0.0 mm/hr 0.00 in0.0 mm
11:36 AM 69.5°F20.8°C 48.3°F9.1°C 47% 5.8 mph ESE9.3 kmh ESE 7.8 mph12.6 kmh 30.08 in1018.6 mb 0.00 in0.0 mm 0.00 in/hr0.0 mm/hr 0.00 in0.0 mm
11:42 AM 69.7°F20.9°C 49.1°F9.5°C 48% 4.5 mph SE7.2 kmh SE 7.6 mph12.2 kmh 30.08 in1018.6 mb 0.00 in0.0 mm 0.00 in/hr0.0 mm/hr 0.00 in0.0 mm
11:47 AM 70.2°F21.2°C 49.0°F9.4°C 47% 7.4 mph SE11.9 kmh SE 8.5 mph13.7 kmh 30.07 in1018.3 mb 0.00 in0.0 mm 0.00 in/hr0.0 mm/hr 0.00 in0.0 mm
11:52 AM 70.2°F21.2°C 49.5°F9.7°C 48% 3.3 mph ESE5.3 kmh ESE 8.5 mph13.7 kmh 30.07 in1018.3 mb 0.00 in0.0 mm 0.00 in/hr0.0 mm/hr 0.00 in0.0 mm
11:57 AM 70.6°F21.4°C 49.2°F9.6°C 47% 4.9 mph ESE7.9 kmh ESE 7.4 mph11.9 kmh 30.07 in1018.3 mb 0.00 in0.0 mm 0.00 in/hr0.0 mm/hr 0.00 in0.0 mm
12:02 PM 70.9°F21.6°C 49.6°F9.8°C 47% 5.7 mph SE9.2 kmh SE 8.5 mph13.7 kmh 30.06 in1017.9 mb 0.00 in0.0 mm 0.00 in/hr0.0 mm/hr 0.00 in0.0 mm
12:07 PM 71.5°F21.9°C 49.5°F9.7°C 46% 3.5 mph SSE5.6 kmh SSE 8.5 mph13.7 kmh 30.06 in1017.9 mb 0.00 in0.0 mm 0.00 in/hr0.0 mm/hr 0.00 in0.0 mm
12:12 PM 71.8°F22.1°C 49.8°F9.9°C 46% 2.8 mph E4.5 kmh E 7.4 mph11.9 kmh 30.06 in1017.9 mb 0.00 in0.0 mm 0.00 in/hr0.0 mm/hr 0.00 in0.0 mm
12:17 PM 72.4°F22.4°C 49.7°F9.8°C 45% 6.0 mph SE9.7 kmh SE 7.4 mph11.9 kmh 30.05 in1017.6 mb 0.00 in0.0 mm 0.00 in/hr0.0 mm/hr 0.00 in0.0 mm
12:22 PM 72.5°F22.5°C 49.9°F9.9°C 45% 5.7 mph SE9.2 kmh SE 7.4 mph11.9 kmh 30.05 in1017.6 mb 0.00 in0.0 mm 0.00 in/hr0.0 mm/hr 0.00 in0.0 mm
12:27 PM 72.9°F22.7°C 49.6°F9.8°C 44% 3.4 mph ESE5.5 kmh ESE 7.2 mph11.6 kmh 30.05 in1017.6 mb 0.00 in0.0 mm 0.00 in/hr0.0 mm/hr 0.00 in0.0 mm
12:32 PM 73.1°F22.8°C 49.8°F9.9°C 44% 3.8 mph ESE6.1 kmh ESE 7.6 mph12.2 kmh 30.05 in1017.6 mb 0.00 in0.0 mm 0.00 in/hr0.0 mm/hr 0.00 in0.0 mm
12:36 PM 73.6°F23.1°C 50.9°F10.5°C 45% 1.5 mph SE2.4 kmh SE 7.6 mph12.2 kmh 30.05 in1017.6 mb 0.00 in0.0 mm 0.00 in/hr0.0 mm/hr 0.00 in0.0 mm
12:41 PM 74.5°F23.6°C 51.1°F10.6°C 44% 4.1 mph NE6.6 kmh NE 6.0 mph9.7 kmh 30.05 in1017.6 mb 0.00 in0.0 mm 0.00 in/hr0.0 mm/hr 0.00 in0.0 mm
12:46 PM 74.9°F23.8°C 49.6°F9.8°C 41% 3.6 mph S5.8 kmh S 6.0 mph9.7 kmh 30.05 in1017.6 mb 0.00 in0.0 mm 0.00 in/hr0.0 mm/hr 0.00 in0.0 mm
12:51 PM 74.9°F23.8°C 50.2°F10.1°C 42% 3.1 mph SE5.0 kmh SE 4.9 mph7.9 kmh 30.04 in1017.3 mb 0.00 in0.0 mm 0.00 in/hr0.0 mm/hr 0.00 in0.0 mm
12:56 PM 75.2°F24.0°C 51.1°F10.6°C 43% 2.9 mph E4.7 kmh E 7.2 mph11.6 kmh 30.04 in1017.3 mb 0.00 in0.0 mm 0.00 in/hr0.0 mm/hr 0.00 in0.0 mm
01:01 PM 75.6°F24.2°C 50.9°F10.5°C 42% 2.4 mph ESE3.9 kmh ESE 7.2 mph11.6 kmh 30.04 in1017.3 mb 0.00 in0.0 mm 0.00 in/hr0.0 mm/hr 0.00 in0.0 mm
01:06 PM 76.1°F24.5°C 51.4°F10.8°C 42% 2.1 mph SSE3.4 kmh SSE 5.4 mph8.7 kmh 30.03 in1016.9 mb 0.00 in0.0 mm 0.00 in/hr0.0 mm/hr 0.00 in0.0 mm
01:11 PM 76.7°F24.8°C 51.2°F10.7°C 41% 4.7 mph SE7.6 kmh SE 6.9 mph11.1 kmh 30.03 in1016.9 mb 0.00 in0.0 mm 0.00 in/hr0.0 mm/hr 0.00 in0.0 mm
01:12 PM 75.6°F24.2°C 49.7°F9.8°C 40% 4.5 mph SSE7.2 kmh SSE 6.9 mph11.1 kmh 30.03 in1016.9 mb 0.00 in0.0 mm 0.00 in/hr0.0 mm/hr 0.00 in0.0 mm
01:17 PM 74.9°F23.8°C 50.2°F10.1°C 42% 0.9 mph WSW1.4 kmh WSW 6.9 mph11.1 kmh 30.03 in1016.9 mb 0.00 in0.0 mm 0.00 in/hr0.0 mm/hr 0.00 in0.0 mm
01:22 PM 74.9°F23.8°C 50.9°F10.5°C 43% 0.7 mph NW1.1 kmh NW 6.5 mph10.5 kmh 30.03 in1016.9 mb 0.00 in0.0 mm 0.00 in/hr0.0 mm/hr 0.00 in0.0 mm
01:27 PM 75.4°F24.1°C 50.7°F10.4°C 42% 2.0 mph WNW3.2 kmh WNW 4.5 mph7.2 kmh 30.02 in1016.6 mb 0.00 in0.0 mm 0.00 in/hr0.0 mm/hr 0.00 in0.0 mm
01:32 PM 76.0°F24.4°C 51.2°F10.7°C 42% 0.8 mph NW1.3 kmh NW 4.5 mph7.2 kmh 30.02 in1016.6 mb 0.00 in0.0 mm 0.00 in/hr0.0 mm/hr 0.00 in0.0 mm
01:37 PM 76.3°F24.6°C 51.5°F10.8°C 42% 1.0 mph WSW1.6 kmh WSW 2.0 mph3.2 kmh 30.02 in1016.6 mb 0.00 in0.0 mm 0.00 in/hr0.0 mm/hr 0.00 in0.0 mm
01:42 PM 77.2°F25.1°C 51.8°F11.0°C 41% 0.9 mph SSW1.4 kmh SSW 2.5 mph4.0 kmh 30.01 in1016.3 mb 0.00 in0.0 mm 0.00 in/hr0.0 mm/hr 0.00 in0.0 mm
01:47 PM 77.6°F25.3°C 52.0°F11.1°C 41% 0.6 mph N1.0 kmh N 3.8 mph6.1 kmh 30.01 in1016.3 mb 0.00 in0.0 mm 0.00 in/hr0.0 mm/hr 0.00 in0.0 mm
01:52 PM 77.4°F25.2°C 51.8°F11.0°C 41% 1.3 mph E2.1 kmh E 3.8 mph6.1 kmh 30.00 in1015.9 mb 0.00 in0.0 mm 0.00 in/hr0.0 mm/hr 0.00 in0.0 mm
01:57 PM 77.2°F25.1°C 50.3°F10.2°C 39% 2.3 mph S3.7 kmh S 4.5 mph7.2 kmh 30.00 in1015.9 mb 0.00 in0.0 mm 0.00 in/hr0.0 mm/hr 0.00 in0.0 mm
02:02 PM 77.2°F25.1°C 51.8°F11.0°C 41% 1.4 mph NW2.3 kmh NW 4.5 mph7.2 kmh 30.00 in1015.9 mb 0.00 in0.0 mm 0.00 in/hr0.0 mm/hr 0.00 in0.0 mm
02:07 PM 78.1°F25.6°C 51.1°F10.6°C 39% 4.0 mph N6.4 kmh N 6.3 mph10.1 kmh 30.00 in1015.9 mb 0.00 in0.0 mm 0.00 in/hr0.0 mm/hr 0.00 in0.0 mm
02:12 PM 78.1°F25.6°C 51.1°F10.6°C 39% 3.5 mph N5.6 kmh N 6.3 mph10.1 kmh 30.00 in1015.9 mb 0.00 in0.0 mm 0.00 in/hr0.0 mm/hr 0.00 in0.0 mm
02:17 PM 77.8°F25.4°C 50.9°F10.5°C 39% 5.4 mph N8.7 kmh N 9.2 mph14.8 kmh 30.00 in1015.9 mb 0.00 in0.0 mm 0.00 in/hr0.0 mm/hr 0.00 in0.0 mm
02:22 PM 76.7°F24.8°C 50.6°F10.3°C 40% 6.2 mph N10.0 kmh N 9.4 mph15.1 kmh 29.99 in1015.6 mb 0.00 in0.0 mm 0.00 in/hr0.0 mm/hr 0.00 in0.0 mm
02:27 PM 76.7°F24.8°C 51.2°F10.7°C 41% 5.1 mph N8.2 kmh N 9.8 mph15.8 kmh 30.00 in1015.9 mb 0.00 in0.0 mm 0.00 in/hr0.0 mm/hr 0.00 in0.0 mm
02:32 PM 76.7°F24.8°C 51.2°F10.7°C 41% 5.4 mph N8.7 kmh N 9.8 mph15.8 kmh 30.00 in1015.9 mb 0.00 in0.0 mm 0.00 in/hr0.0 mm/hr 0.00 in0.0 mm
02:37 PM 76.5°F24.7°C 51.0°F10.6°C 41% 3.6 mph N5.8 kmh N 11.6 mph18.7 kmh 30.00 in1015.9 mb 0.00 in0.0 mm 0.00 in/hr0.0 mm/hr 0.00 in0.0 mm
02:43 PM 75.8°F24.3°C 50.4°F10.2°C 41% 4.5 mph N7.2 kmh N 11.6 mph18.7 kmh 30.00 in1015.9 mb 0.00 in0.0 mm 0.00 in/hr0.0 mm/hr 0.00 in0.0 mm
02:48 PM 75.1°F23.9°C 50.4°F10.2°C 42% 3.0 mph WNW4.8 kmh WNW 7.6 mph12.2 kmh 29.99 in1015.6 mb 0.00 in0.0 mm 0.00 in/hr0.0 mm/hr 0.00 in0.0 mm
02:53 PM 74.7°F23.7°C 50.0°F10.0°C 42% 3.6 mph NNW5.8 kmh NNW 6.9 mph11.1 kmh 30.00 in1015.9 mb 0.00 in0.0 mm 0.00 in/hr0.0 mm/hr 0.00 in0.0 mm
02:58 PM 74.0°F23.3°C 50.0°F10.0°C 43% 3.4 mph NW5.5 kmh NW 9.2 mph14.8 kmh 30.00 in1015.9 mb 0.00 in0.0 mm 0.00 in/hr0.0 mm/hr 0.00 in0.0 mm
03:03 PM 73.4°F23.0°C 50.0°F10.0°C 44% 2.0 mph NNW3.2 kmh NNW 9.2 mph14.8 kmh 29.99 in1015.6 mb 0.00 in0.0 mm 0.00 in/hr0.0 mm/hr 0.00 in0.0 mm
03:08 PM 72.7°F22.6°C 49.4°F9.7°C 44% 3.8 mph N6.1 kmh N 5.8 mph9.3 kmh 30.00 in1015.9 mb 0.00 in0.0 mm 0.00 in/hr0.0 mm/hr 0.00 in0.0 mm
03:13 PM 72.5°F22.5°C 49.9°F9.9°C 45% 3.7 mph NW6.0 kmh NW 6.3 mph10.1 kmh 30.00 in1015.9 mb 0.00 in0.0 mm 0.00 in/hr0.0 mm/hr 0.00 in0.0 mm
03:18 PM 72.4°F22.4°C 49.7°F9.8°C 45% 3.6 mph N5.8 kmh N 6.3 mph10.1 kmh 30.00 in1015.9 mb 0.00 in0.0 mm 0.00 in/hr0.0 mm/hr 0.00 in0.0 mm
03:23 PM 72.9°F22.7°C 50.2°F10.1°C 45% 2.4 mph NW3.9 kmh NW 5.6 mph9.0 kmh 30.00 in1015.9 mb 0.00 in0.0 mm 0.00 in/hr0.0 mm/hr 0.00 in0.0 mm
03:28 PM 72.9°F22.7°C 49.6°F9.8°C 44% 4.6 mph N7.4 kmh N 5.6 mph9.0 kmh 29.99 in1015.6 mb 0.00 in0.0 mm 0.00 in/hr0.0 mm/hr 0.00 in0.0 mm
03:33 PM 72.4°F22.4°C 49.7°F9.8°C 45% 3.8 mph NW6.1 kmh NW 5.6 mph9.0 kmh 29.99 in1015.6 mb 0.00 in0.0 mm 0.00 in/hr0.0 mm/hr 0.00 in0.0 mm
03:38 PM 72.0°F22.2°C 49.4°F9.7°C 45% 3.0 mph NW4.8 kmh NW 5.6 mph9.0 kmh 29.99 in1015.6 mb 0.00 in0.0 mm 0.00 in/hr0.0 mm/hr 0.00 in0.0 mm
03:43 PM 71.8°F22.1°C 49.8°F9.9°C 46% 2.5 mph NNW4.0 kmh NNW 5.6 mph9.0 kmh 29.99 in1015.6 mb 0.00 in0.0 mm 0.00 in/hr0.0 mm/hr 0.00 in0.0 mm
03:48 PM 71.8°F22.1°C 49.8°F9.9°C 46% 2.1 mph NW3.4 kmh NW 4.7 mph7.6 kmh 29.98 in1015.2 mb 0.00 in0.0 mm 0.00 in/hr0.0 mm/hr 0.00 in0.0 mm
03:53 PM 72.4°F22.4°C 50.3°F10.2°C 46% 1.9 mph NW3.1 kmh NW 4.0 mph6.4 kmh 29.98 in1015.2 mb 0.00 in0.0 mm 0.00 in/hr0.0 mm/hr 0.00 in0.0 mm
03:58 PM 72.5°F22.5°C 50.5°F10.3°C 46% 3.0 mph NW4.8 kmh NW 4.7 mph7.6 kmh 29.98 in1015.2 mb 0.00 in0.0 mm 0.00 in/hr0.0 mm/hr 0.00 in0.0 mm
04:03 PM 72.0°F22.2°C 50.0°F10.0°C 46% 2.8 mph WNW4.5 kmh WNW 5.4 mph8.7 kmh 29.98 in1015.2 mb 0.00 in0.0 mm 0.00 in/hr0.0 mm/hr 0.00 in0.0 mm
04:08 PM 71.6°F22.0°C 49.7°F9.8°C 46% 2.7 mph NW4.3 kmh NW 6.9 mph11.1 kmh 29.97 in1014.9 mb 0.00 in0.0 mm 0.00 in/hr0.0 mm/hr 0.00 in0.0 mm
04:13 PM 71.1°F21.7°C 49.1°F9.5°C 46% 3.2 mph NW5.1 kmh NW 6.9 mph11.1 kmh 29.98 in1015.2 mb 0.00 in0.0 mm 0.00 in/hr0.0 mm/hr 0.00 in0.0 mm
04:18 PM 71.1°F21.7°C 49.1°F9.5°C 46% 3.9 mph NW6.3 kmh NW 6.9 mph11.1 kmh 29.98 in1015.2 mb 0.00 in0.0 mm 0.00 in/hr0.0 mm/hr 0.00 in0.0 mm
04:23 PM 71.8°F22.1°C 49.2°F9.6°C 45% 3.8 mph WNW6.1 kmh WNW 6.9 mph11.1 kmh 29.98 in1015.2 mb 0.00 in0.0 mm 0.00 in/hr0.0 mm/hr 0.00 in0.0 mm
04:28 PM 71.6°F22.0°C 49.1°F9.5°C 45% 3.8 mph N6.1 kmh N 5.1 mph8.2 kmh 29.98 in1015.2 mb 0.00 in0.0 mm 0.00 in/hr0.0 mm/hr 0.00 in0.0 mm
04:33 PM 71.3°F21.8°C 48.7°F9.3°C 45% 4.2 mph NW6.8 kmh NW 5.1 mph8.2 kmh 29.98 in1015.2 mb 0.00 in0.0 mm 0.00 in/hr0.0 mm/hr 0.00 in0.0 mm
04:38 PM 70.6°F21.4°C 48.7°F9.3°C 46% 3.5 mph NNW5.6 kmh NNW 6.5 mph10.5 kmh 29.98 in1015.2 mb 0.00 in0.0 mm 0.00 in/hr0.0 mm/hr 0.00 in0.0 mm
04:43 PM 70.2°F21.2°C 48.3°F9.1°C 46% 3.2 mph NW5.1 kmh NW 6.5 mph10.5 kmh 29.98 in1015.2 mb 0.00 in0.0 mm 0.00 in/hr0.0 mm/hr 0.00 in0.0 mm
04:48 PM 70.4°F21.3°C 48.5°F9.2°C 46% 3.4 mph NNW5.5 kmh NNW 5.4 mph8.7 kmh 29.97 in1014.9 mb 0.00 in0.0 mm 0.00 in/hr0.0 mm/hr 0.00 in0.0 mm
04:53 PM 70.4°F21.3°C 48.5°F9.2°C 46% 1.9 mph NNW3.1 kmh NNW 5.4 mph8.7 kmh 29.97 in1014.9 mb 0.00 in0.0 mm 0.00 in/hr0.0 mm/hr 0.00 in0.0 mm
04:58 PM 70.2°F21.2°C 46.5°F8.1°C 43% 6.4 mph WNW10.3 kmh WNW 7.4 mph11.9 kmh 29.97 in1014.9 mb 0.00 in0.0 mm 0.00 in/hr0.0 mm/hr 0.00 in0.0 mm
05:03 PM 69.5°F20.8°C 46.5°F8.1°C 44% 6.9 mph W11.1 kmh W 10.7 mph17.2 kmh 29.98 in1015.2 mb 0.00 in0.0 mm 0.00 in/hr0.0 mm/hr 0.00 in0.0 mm
05:08 PM 69.1°F20.6°C 46.2°F7.9°C 44% 6.4 mph WNW10.3 kmh WNW 11.4 mph18.3 kmh 29.98 in1015.2 mb 0.00 in0.0 mm 0.00 in/hr0.0 mm/hr 0.00 in0.0 mm
05:13 PM 68.8°F20.4°C 45.3°F7.4°C 43% 5.7 mph W9.2 kmh W 11.4 mph18.3 kmh 29.98 in1015.2 mb 0.00 in0.0 mm 0.00 in/hr0.0 mm/hr 0.00 in0.0 mm
05:18 PM 68.4°F20.2°C 44.9°F7.2°C 43% 5.9 mph W9.5 kmh W 10.5 mph16.9 kmh 29.98 in1015.2 mb 0.00 in0.0 mm 0.00 in/hr0.0 mm/hr 0.00 in0.0 mm
05:23 PM 68.4°F20.2°C 44.9°F7.2°C 43% 7.7 mph W12.4 kmh W 10.7 mph17.2 kmh 29.98 in1015.2 mb 0.00 in0.0 mm 0.00 in/hr0.0 mm/hr 0.00 in0.0 mm
05:28 PM 68.2°F20.1°C 44.8°F7.1°C 43% 5.1 mph W8.2 kmh W 10.7 mph17.2 kmh 29.97 in1014.9 mb 0.00 in0.0 mm 0.00 in/hr0.0 mm/hr 0.00 in0.0 mm
05:33 PM 68.0°F20.0°C 45.2°F7.3°C 44% 6.5 mph W10.5 kmh W 9.2 mph14.8 kmh 29.97 in1014.9 mb 0.00 in0.0 mm 0.00 in/hr0.0 mm/hr 0.00 in0.0 mm
05:38 PM 68.0°F20.0°C 45.2°F7.3°C 44% 5.4 mph NW8.7 kmh NW 9.6 mph15.4 kmh 29.98 in1015.2 mb 0.00 in0.0 mm 0.00 in/hr0.0 mm/hr 0.00 in0.0 mm
05:43 PM 67.7°F19.8°C 44.9°F7.2°C 44% 6.0 mph W9.7 kmh W 9.8 mph15.8 kmh 29.98 in1015.2 mb 0.00 in0.0 mm 0.00 in/hr0.0 mm/hr 0.00 in0.0 mm
05:48 PM 67.3°F19.6°C 44.6°F7.0°C 44% 6.2 mph W10.0 kmh W 9.8 mph15.8 kmh 29.98 in1015.2 mb 0.00 in0.0 mm 0.00 in/hr0.0 mm/hr 0.00 in0.0 mm
05:53 PM 67.1°F19.5°C 44.4°F6.9°C 44% 5.3 mph W8.5 kmh W 8.5 mph13.7 kmh 29.98 in1015.2 mb 0.00 in0.0 mm 0.00 in/hr0.0 mm/hr 0.00 in0.0 mm
05:58 PM 67.0°F19.4°C 44.8°F7.1°C 45% 2.9 mph W4.7 kmh W 8.5 mph13.7 kmh 29.98 in1015.2 mb 0.00 in0.0 mm 0.00 in/hr0.0 mm/hr 0.00 in0.0 mm
06:03 PM 66.8°F19.3°C 44.6°F7.0°C 45% 3.9 mph WSW6.3 kmh WSW 5.8 mph9.3 kmh 29.98 in1015.2 mb 0.00 in0.0 mm 0.00 in/hr0.0 mm/hr 0.00 in0.0 mm
06:08 PM 66.6°F19.2°C 44.6°F7.0°C 45% 4.3 mph WSW6.9 kmh WSW 4.9 mph7.9 kmh 29.97 in1014.9 mb 0.00 in0.0 mm 0.00 in/hr0.0 mm/hr 0.00 in0.0 mm
06:14 PM 66.4°F19.1°C 44.4°F6.9°C 45% 1.8 mph WNW2.9 kmh WNW 4.9 mph7.9 kmh 29.97 in1014.9 mb 0.00 in0.0 mm 0.00 in/hr0.0 mm/hr 0.00 in0.0 mm
06:19 PM 66.2°F19.0°C 44.2°F6.8°C 45% 3.4 mph WSW5.5 kmh WSW 6.3 mph10.1 kmh 29.98 in1015.2 mb 0.00 in0.0 mm 0.00 in/hr0.0 mm/hr 0.00 in0.0 mm
06:24 PM 66.1°F18.9°C 44.0°F6.7°C 45% 1.3 mph W2.1 kmh W 6.3 mph10.1 kmh 29.97 in1014.9 mb 0.00 in0.0 mm 0.00 in/hr0.0 mm/hr 0.00 in0.0 mm
06:29 PM 65.9°F18.8°C 43.8°F6.6°C 45% 3.0 mph W4.8 kmh W 4.7 mph7.6 kmh 29.98 in1015.2 mb 0.00 in0.0 mm 0.00 in/hr0.0 mm/hr 0.00 in0.0 mm
06:34 PM 65.9°F18.8°C 44.5°F6.9°C 46% 3.1 mph WSW5.0 kmh WSW 6.3 mph10.1 kmh 29.97 in1014.9 mb 0.00 in0.0 mm 0.00 in/hr0.0 mm/hr 0.00 in0.0 mm
06:39 PM 65.7°F18.7°C 44.3°F6.8°C 46% 5.8 mph WSW9.3 kmh WSW 6.7 mph10.8 kmh 29.98 in1015.2 mb 0.00 in0.0 mm 0.00 in/hr0.0 mm/hr 0.00 in0.0 mm
06:44 PM 65.7°F18.7°C 44.3°F6.8°C 46% 5.6 mph W9.0 kmh W 6.9 mph11.1 kmh 29.98 in1015.2 mb 0.00 in0.0 mm 0.00 in/hr0.0 mm/hr 0.00 in0.0 mm
06:49 PM 65.5°F18.6°C 44.1°F6.7°C 46% 4.2 mph W6.8 kmh W 7.6 mph12.2 kmh 29.98 in1015.2 mb 0.00 in0.0 mm 0.00 in/hr0.0 mm/hr 0.00 in0.0 mm
06:54 PM 65.3°F18.5°C 47.7°F8.7°C 53% 3.8 mph WNW6.1 kmh WNW 7.6 mph12.2 kmh 29.98 in1015.2 mb 0.00 in0.0 mm 0.00 in/hr0.0 mm/hr 0.00 in0.0 mm
06:59 PM 65.0°F18.3°C 48.3°F9.1°C 55% 1.9 mph NNW3.1 kmh NNW 6.5 mph10.5 kmh 29.98 in1015.2 mb 0.00 in0.0 mm 0.00 in/hr0.0 mm/hr 0.00 in0.0 mm
07:04 PM 64.4°F18.0°C 48.2°F9.0°C 56% 3.2 mph WNW5.1 kmh WNW 4.9 mph7.9 kmh 29.98 in1015.2 mb 0.00 in0.0 mm 0.00 in/hr0.0 mm/hr 0.00 in0.0 mm
07:09 PM 64.3°F17.9°C 48.2°F9.0°C 56% 3.2 mph WSW5.1 kmh WSW 4.9 mph7.9 kmh 29.98 in1015.2 mb 0.00 in0.0 mm 0.00 in/hr0.0 mm/hr 0.00 in0.0 mm
07:14 PM 64.1°F17.8°C 47.0°F8.3°C 54% 3.2 mph WSW5.1 kmh WSW 5.1 mph8.2 kmh 29.98 in1015.2 mb 0.00 in0.0 mm 0.00 in/hr0.0 mm/hr 0.00 in0.0 mm
07:19 PM 64.1°F17.8°C 48.0°F8.9°C 56% 0.9 mph NNW1.4 kmh NNW 5.1 mph8.2 kmh 29.98 in1015.2 mb 0.00 in0.0 mm 0.00 in/hr0.0 mm/hr 0.00 in0.0 mm
07:24 PM 63.9°F17.7°C 47.8°F8.8°C 56% 0.6 mph NW1.0 kmh NW 2.9 mph4.7 kmh 29.99 in1015.6 mb 0.00 in0.0 mm 0.00 in/hr0.0 mm/hr 0.00 in0.0 mm
07:29 PM 63.7°F17.6°C 47.2°F8.4°C 55% 2.0 mph NW3.2 kmh NW 4.3 mph6.9 kmh 29.99 in1015.6 mb 0.00 in0.0 mm 0.00 in/hr0.0 mm/hr 0.00 in0.0 mm
07:34 PM 63.7°F17.6°C 47.6°F8.7°C 56% 2.0 mph WNW3.2 kmh WNW 4.5 mph7.2 kmh 29.99 in1015.6 mb 0.00 in0.0 mm 0.00 in/hr0.0 mm/hr 0.00 in0.0 mm
07:39 PM 63.5°F17.5°C 47.4°F8.6°C 56% 1.6 mph WNW2.6 kmh WNW 4.5 mph7.2 kmh 29.99 in1015.6 mb 0.00 in0.0 mm 0.00 in/hr0.0 mm/hr 0.00 in0.0 mm
07:44 PM 63.4°F17.4°C 48.2°F9.0°C 58% 1.4 mph NNW2.3 kmh NNW 3.1 mph5.0 kmh 29.98 in1015.2 mb 0.00 in0.0 mm 0.00 in/hr0.0 mm/hr 0.00 in0.0 mm
07:49 PM 63.0°F17.2°C 48.4°F9.1°C 59% 1.8 mph NW2.9 kmh NW 3.6 mph5.8 kmh 29.99 in1015.6 mb 0.00 in0.0 mm 0.00 in/hr0.0 mm/hr 0.00 in0.0 mm
07:54 PM 62.8°F17.1°C 48.8°F9.3°C 60% 0.9 mph WNW1.4 kmh WNW 3.6 mph5.8 kmh 29.99 in1015.6 mb 0.00 in0.0 mm 0.00 in/hr0.0 mm/hr 0.00 in0.0 mm
07:59 PM 62.6°F17.0°C 49.4°F9.7°C 62% 2.2 mph NNW3.5 kmh NNW 3.6 mph5.8 kmh 29.99 in1015.6 mb 0.00 in0.0 mm 0.00 in/hr0.0 mm/hr 0.00 in0.0 mm
08:04 PM 62.5°F16.9°C 49.2°F9.6°C 62% 2.6 mph N4.2 kmh N 3.8 mph6.1 kmh 29.99 in1015.6 mb 0.00 in0.0 mm 0.00 in/hr0.0 mm/hr 0.00 in0.0 mm
08:09 PM 62.3°F16.8°C 48.7°F9.3°C 61% 1.1 mph N1.8 kmh N 3.8 mph6.1 kmh 29.99 in1015.6 mb 0.00 in0.0 mm 0.00 in/hr0.0 mm/hr 0.00 in0.0 mm
08:14 PM 62.1°F16.7°C 48.5°F9.2°C 61% 1.0 mph N1.6 kmh N 3.4 mph5.5 kmh 29.99 in1015.6 mb 0.00 in0.0 mm 0.00 in/hr0.0 mm/hr 0.00 in0.0 mm
08:19 PM 61.9°F16.6°C 48.3°F9.1°C 61% 1.4 mph WNW2.3 kmh WNW 2.0 mph3.2 kmh 29.99 in1015.6 mb 0.00 in0.0 mm 0.00 in/hr0.0 mm/hr 0.00 in0.0 mm
08:24 PM 61.9°F16.6°C 48.3°F9.1°C 61% 0.4 mph NW0.6 kmh NW 2.0 mph3.2 kmh 29.99 in1015.6 mb 0.00 in0.0 mm 0.00 in/hr0.0 mm/hr 0.00 in0.0 mm
08:29 PM 61.7°F16.5°C 48.3°F9.1°C 61% 0.6 mph NNW1.0 kmh NNW 1.3 mph2.1 kmh 30.00 in1015.9 mb 0.00 in0.0 mm 0.00 in/hr0.0 mm/hr 0.00 in0.0 mm
08:34 PM 61.6°F16.4°C 48.1°F8.9°C 61% 1.5 mph NNW2.4 kmh NNW 2.0 mph3.2 kmh 30.00 in1015.9 mb 0.00 in0.0 mm 0.00 in/hr0.0 mm/hr 0.00 in0.0 mm
08:39 PM 61.4°F16.3°C 47.9°F8.8°C 61% 0.9 mph NNE1.4 kmh NNE 2.0 mph3.2 kmh 30.00 in1015.9 mb 0.00 in0.0 mm 0.00 in/hr0.0 mm/hr 0.00 in0.0 mm
08:44 PM 61.2°F16.2°C 47.7°F8.7°C 61% 1.0 mph N1.6 kmh N 1.6 mph2.6 kmh 30.00 in1015.9 mb 0.00 in0.0 mm 0.00 in/hr0.0 mm/hr 0.00 in0.0 mm
08:49 PM 61.2°F16.2°C 47.7°F8.7°C 61% 1.7 mph N2.7 kmh N 2.0 mph3.2 kmh 30.00 in1015.9 mb 0.00 in0.0 mm 0.00 in/hr0.0 mm/hr 0.00 in0.0 mm
08:54 PM 61.2°F16.2°C 47.7°F8.7°C 61% 2.0 mph NNE3.2 kmh NNE 2.9 mph4.7 kmh 29.99 in1015.6 mb 0.00 in0.0 mm 0.00 in/hr0.0 mm/hr 0.00 in0.0 mm
08:59 PM 61.0°F16.1°C 47.5°F8.6°C 61% 1.6 mph N2.6 kmh N 2.9 mph4.7 kmh 29.99 in1015.6 mb 0.00 in0.0 mm 0.00 in/hr0.0 mm/hr 0.00 in0.0 mm
09:04 PM 60.8°F16.0°C 47.4°F8.6°C 61% Calm Calm 2.5 mph4.0 kmh 30.00 in1015.9 mb 0.00 in0.0 mm 0.00 in/hr0.0 mm/hr 0.00 in0.0 mm
09:09 PM 60.8°F16.0°C 47.8°F8.8°C 62% 1.8 mph N2.9 kmh N 2.7 mph4.3 kmh 30.00 in1015.9 mb 0.00 in0.0 mm 0.00 in/hr0.0 mm/hr 0.00 in0.0 mm
09:14 PM 60.7°F15.9°C 47.6°F8.7°C 62% 2.9 mph N4.7 kmh N 3.8 mph6.1 kmh 30.00 in1015.9 mb 0.00 in0.0 mm 0.00 in/hr0.0 mm/hr 0.00 in0.0 mm
09:19 PM 60.5°F15.8°C 47.4°F8.6°C 62% 1.6 mph N2.6 kmh N 4.3 mph6.9 kmh 30.00 in1015.9 mb 0.00 in0.0 mm 0.00 in/hr0.0 mm/hr 0.00 in0.0 mm
09:24 PM 60.5°F15.8°C 47.4°F8.6°C 62% 1.1 mph N1.8 kmh N 4.3 mph6.9 kmh 30.00 in1015.9 mb 0.00 in0.0 mm 0.00 in/hr0.0 mm/hr 0.00 in0.0 mm
09:29 PM 60.3°F15.7°C 47.3°F8.5°C 62% 0.5 mph N0.8 kmh N 1.8 mph2.9 kmh 29.99 in1015.6 mb 0.00 in0.0 mm 0.00 in/hr0.0 mm/hr 0.00 in0.0 mm
09:34 PM 60.3°F15.7°C 47.3°F8.5°C 62% 0.5 mph NW0.8 kmh NW 1.3 mph2.1 kmh 30.00 in1015.9 mb 0.00 in0.0 mm 0.00 in/hr0.0 mm/hr 0.00 in0.0 mm
09:39 PM 60.1°F15.6°C 47.1°F8.4°C 62% 0.7 mph NW1.1 kmh NW 1.8 mph2.9 kmh 30.00 in1015.9 mb 0.00 in0.0 mm 0.00 in/hr0.0 mm/hr 0.00 in0.0 mm
09:44 PM 60.1°F15.6°C 47.1°F8.4°C 62% 0.6 mph NW1.0 kmh NW 2.2 mph3.5 kmh 30.00 in1015.9 mb 0.00 in0.0 mm 0.00 in/hr0.0 mm/hr 0.00 in0.0 mm
09:49 PM 60.1°F15.6°C 47.1°F8.4°C 62% 0.5 mph NW0.8 kmh NW 2.5 mph4.0 kmh 30.00 in1015.9 mb 0.00 in0.0 mm 0.00 in/hr0.0 mm/hr 0.00 in0.0 mm
09:54 PM 60.1°F15.6°C 47.1°F8.4°C 62% 0.8 mph N1.3 kmh N 2.5 mph4.0 kmh 30.00 in1015.9 mb 0.00 in0.0 mm 0.00 in/hr0.0 mm/hr 0.00 in0.0 mm
10:00 PM 59.9°F15.5°C 46.9°F8.3°C 62% 1.4 mph N2.3 kmh N 1.8 mph2.9 kmh 29.99 in1015.6 mb 0.00 in0.0 mm 0.00 in/hr0.0 mm/hr 0.00 in0.0 mm
10:05 PM 59.8°F15.4°C 46.7°F8.2°C 62% 0.8 mph N1.3 kmh N 2.2 mph3.5 kmh 30.00 in1015.9 mb 0.00 in0.0 mm 0.00 in/hr0.0 mm/hr 0.00 in0.0 mm
10:10 PM 59.6°F15.3°C 47.0°F8.3°C 63% 0.8 mph NW1.3 kmh NW 2.5 mph4.0 kmh 30.00 in1015.9 mb 0.00 in0.0 mm 0.00 in/hr0.0 mm/hr 0.00 in0.0 mm
10:15 PM 59.4°F15.2°C 46.8°F8.2°C 63% 2.0 mph WSW3.2 kmh WSW 3.4 mph5.5 kmh 30.00 in1015.9 mb 0.00 in0.0 mm 0.00 in/hr0.0 mm/hr 0.00 in0.0 mm
10:20 PM 59.2°F15.1°C 46.6°F8.1°C 63% 0.9 mph N1.4 kmh N 3.4 mph5.5 kmh 30.00 in1015.9 mb 0.00 in0.0 mm 0.00 in/hr0.0 mm/hr 0.00 in0.0 mm
10:25 PM 59.0°F15.0°C 46.8°F8.2°C 64% 0.5 mph NW0.8 kmh NW 2.2 mph3.5 kmh 30.00 in1015.9 mb 0.00 in0.0 mm 0.00 in/hr0.0 mm/hr 0.00 in0.0 mm
10:30 PM 58.9°F14.9°C 46.7°F8.2°C 64% 0.5 mph NW0.8 kmh NW 2.2 mph3.5 kmh 30.00 in1015.9 mb 0.00 in0.0 mm 0.00 in/hr0.0 mm/hr 0.00 in0.0 mm
10:35 PM 58.7°F14.8°C 47.7°F8.7°C 67% 1.2 mph NW1.9 kmh NW 2.2 mph3.5 kmh 30.00 in1015.9 mb 0.00 in0.0 mm 0.00 in/hr0.0 mm/hr 0.00 in0.0 mm
10:40 PM 58.5°F14.7°C 47.2°F8.4°C 66% 1.0 mph 1.6 kmh 2.2 mph3.5 kmh 30.00 in1015.9 mb 0.00 in0.0 mm 0.00 in/hr0.0 mm/hr 0.00 in0.0 mm
10:45 PM 58.3°F14.6°C 47.0°F8.3°C 66% 1.3 mph N2.1 kmh N 2.9 mph4.7 kmh 30.00 in1015.9 mb 0.00 in0.0 mm 0.00 in/hr0.0 mm/hr 0.00 in0.0 mm
10:50 PM 58.3°F14.6°C 47.0°F8.3°C 66% 0.9 mph W1.4 kmh W 2.9 mph4.7 kmh 30.00 in1015.9 mb 0.00 in0.0 mm 0.00 in/hr0.0 mm/hr 0.00 in0.0 mm
10:55 PM 58.1°F14.5°C 47.6°F8.7°C 68% 1.1 mph NNW1.8 kmh NNW 2.5 mph4.0 kmh 30.00 in1015.9 mb 0.00 in0.0 mm 0.00 in/hr0.0 mm/hr 0.00 in0.0 mm
11:00 PM 58.0°F14.4°C 47.9°F8.8°C 69% 2.5 mph WSW4.0 kmh WSW 4.3 mph6.9 kmh 30.00 in1015.9 mb 0.00 in0.0 mm 0.00 in/hr0.0 mm/hr 0.00 in0.0 mm
11:05 PM 58.0°F14.4°C 47.4°F8.6°C 68% 0.4 mph E0.6 kmh E 4.3 mph6.9 kmh 30.00 in1015.9 mb 0.00 in0.0 mm 0.00 in/hr0.0 mm/hr 0.00 in0.0 mm
11:10 PM 58.0°F14.4°C 48.2°F9.0°C 70% 1.5 mph SW2.4 kmh SW 3.4 mph5.5 kmh 30.00 in1015.9 mb 0.00 in0.0 mm 0.00 in/hr0.0 mm/hr 0.00 in0.0 mm
11:15 PM 57.8°F14.3°C 48.4°F9.1°C 71% 3.7 mph WSW6.0 kmh WSW 6.7 mph10.8 kmh 30.00 in1015.9 mb 0.00 in0.0 mm 0.00 in/hr0.0 mm/hr 0.00 in0.0 mm
11:20 PM 57.8°F14.3°C 48.1°F8.9°C 70% 1.6 mph WSW2.6 kmh WSW 6.7 mph10.8 kmh 30.00 in1015.9 mb 0.00 in0.0 mm 0.00 in/hr0.0 mm/hr 0.00 in0.0 mm
11:25 PM 57.6°F14.2°C 48.2°F9.0°C 71% 1.3 mph WSW2.1 kmh WSW 6.7 mph10.8 kmh 30.00 in1015.9 mb 0.00 in0.0 mm 0.00 in/hr0.0 mm/hr 0.00 in0.0 mm
11:30 PM 57.6°F14.2°C 48.2°F9.0°C 71% 0.7 mph SSW1.1 kmh SSW 3.8 mph6.1 kmh 30.00 in1015.9 mb 0.00 in0.0 mm 0.00 in/hr0.0 mm/hr 0.00 in0.0 mm
11:35 PM 57.4°F14.1°C 48.1°F8.9°C 71% 0.8 mph W1.3 kmh W 3.6 mph5.8 kmh 30.00 in1015.9 mb 0.00 in0.0 mm 0.00 in/hr0.0 mm/hr 0.00 in0.0 mm
11:40 PM 57.4°F14.1°C 48.4°F9.1°C 72% 1.6 mph WSW2.6 kmh WSW 4.0 mph6.4 kmh 30.00 in1015.9 mb 0.00 in0.0 mm 0.00 in/hr0.0 mm/hr 0.00 in0.0 mm
11:45 PM 57.4°F14.1°C 48.8°F9.3°C 73% 2.8 mph SW4.5 kmh SW 5.8 mph9.3 kmh 30.00 in1015.9 mb 0.00 in0.0 mm 0.00 in/hr0.0 mm/hr 0.00 in0.0 mm
11:50 PM 57.4°F14.1°C 48.8°F9.3°C 73% 4.0 mph SW6.4 kmh SW 5.8 mph9.3 kmh 30.00 in1015.9 mb 0.00 in0.0 mm 0.00 in/hr0.0 mm/hr 0.00 in0.0 mm
11:55 PM 57.4°F14.1°C 48.8°F9.3°C 73% 3.1 mph SSW5.0 kmh SSW 6.5 mph10.5 kmh 30.00 in1015.9 mb 0.00 in0.0 mm 0.00 in/hr0.0 mm/hr 0.00 in0.0 mm